createdAt,value
2023-01-19T00:00:24.501Z,7.40
2023-01-19T00:02:51.213Z,7.34
2023-01-19T00:05:17.928Z,7.35
2023-01-19T00:07:45.648Z,7.36
2023-01-19T00:10:12.287Z,7.27
2023-01-19T00:12:39.094Z,7.20
2023-01-19T00:15:06.591Z,7.17
2023-01-19T00:17:33.485Z,7.22
2023-01-19T00:20:00.705Z,7.20
2023-01-19T00:22:27.593Z,7.14
2023-01-19T00:24:54.377Z,7.09
2023-01-19T00:27:21.357Z,7.12
2023-01-19T00:29:48.021Z,7.15
2023-01-19T00:32:17.174Z,7.08
2023-01-19T00:34:48.790Z,6.99
2023-01-19T00:37:16.696Z,6.90
2023-01-19T00:39:44.552Z,6.94
2023-01-19T00:42:30.752Z,6.93
2023-01-19T00:44:57.529Z,6.80
2023-01-19T00:47:24.483Z,6.71
2023-01-19T00:49:51.381Z,6.73
2023-01-19T00:52:18.548Z,6.75
2023-01-19T00:54:45.658Z,6.71
2023-01-19T00:57:12.748Z,6.66
2023-01-19T00:59:39.531Z,6.70
2023-01-19T01:02:06.295Z,6.73
2023-01-19T01:04:33.314Z,6.70
2023-01-19T01:07:00.027Z,6.65
2023-01-19T01:09:29.388Z,6.72
2023-01-19T01:11:56.177Z,6.79
2023-01-19T01:14:23.659Z,6.79
2023-01-19T01:16:50.744Z,6.78
2023-01-19T01:19:17.475Z,6.81
2023-01-19T01:21:44.928Z,6.89
2023-01-19T01:24:11.771Z,6.88
2023-01-19T01:26:38.944Z,6.83
2023-01-19T01:29:05.898Z,6.81
2023-01-19T01:31:32.786Z,6.86
2023-01-19T01:33:59.567Z,6.84
2023-01-19T01:36:31.080Z,6.76
2023-01-19T01:38:58.380Z,6.68
2023-01-19T01:43:54.200Z,6.73
2023-01-19T01:46:20.996Z,6.64
2023-01-19T01:48:52.154Z,6.59
2023-01-19T01:51:26.137Z,6.64
2023-01-19T01:54:20.806Z,6.66
2023-01-19T01:56:49.127Z,6.56
2023-01-19T01:59:29.869Z,6.50
2023-01-19T02:02:17.013Z,6.55
2023-01-19T02:04:50.491Z,6.57
2023-01-19T02:08:04.112Z,6.52
2023-01-19T02:10:50.357Z,6.48
2023-01-19T02:13:23.279Z,6.53
2023-01-19T02:15:55.009Z,6.48
2023-01-19T02:18:22.717Z,6.44
2023-01-19T02:21:08.584Z,6.41
2023-01-19T02:23:39.400Z,6.46
2023-01-19T02:26:07.324Z,6.44
2023-01-19T02:28:34.117Z,6.41
2023-01-19T02:31:00.988Z,6.36
2023-01-19T02:33:27.872Z,6.33
2023-01-19T02:35:54.654Z,6.41
2023-01-19T02:38:21.505Z,6.46
2023-01-19T02:40:48.369Z,6.43
2023-01-19T02:43:15.171Z,6.41
2023-01-19T02:45:43.318Z,6.41
2023-01-19T02:48:10.222Z,6.50
2023-01-19T02:50:38.407Z,6.55
2023-01-19T02:53:34.245Z,6.52
2023-01-19T02:56:24.923Z,6.47
2023-01-19T02:59:15.831Z,6.46
2023-01-19T03:02:01.940Z,6.58
2023-01-19T03:04:45.789Z,6.63
2023-01-19T03:07:28.220Z,6.59
2023-01-19T03:10:28.133Z,6.56
2023-01-19T03:13:16.947Z,6.65
2023-01-19T03:15:48.222Z,6.64
2023-01-19T03:18:16.199Z,6.55
2023-01-19T03:20:44.143Z,6.45
2023-01-19T03:23:11.841Z,6.44
2023-01-19T03:25:41.305Z,6.42
2023-01-19T03:28:08.159Z,6.34
2023-01-19T03:30:40.384Z,6.26
2023-01-19T03:33:16.575Z,6.29
2023-01-19T03:35:49.652Z,6.31
2023-01-19T03:38:17.416Z,6.24
2023-01-19T03:40:44.374Z,6.17
2023-01-19T03:43:11.166Z,6.20
2023-01-19T03:45:38.430Z,6.22
2023-01-19T03:48:05.857Z,6.16
2023-01-19T03:50:32.713Z,6.08
2023-01-19T03:53:08.738Z,6.08
2023-01-19T03:55:35.838Z,6.14
2023-01-19T03:58:02.696Z,6.11
2023-01-19T04:00:29.552Z,6.06
2023-01-19T04:02:56.445Z,6.05
2023-01-19T04:05:23.684Z,6.13
2023-01-19T04:07:51.795Z,6.15
2023-01-19T04:10:18.926Z,6.14
2023-01-19T04:12:45.884Z,6.13
2023-01-19T04:15:13.044Z,6.21
2023-01-19T04:17:40.056Z,6.27
2023-01-19T04:20:07.312Z,6.24
2023-01-19T04:22:35.418Z,6.20
2023-01-19T04:25:03.207Z,6.21
2023-01-19T04:27:30.021Z,6.27
2023-01-19T04:29:57.159Z,6.24
2023-01-19T04:32:24.037Z,6.18
2023-01-19T04:34:50.902Z,6.15
2023-01-19T04:37:17.900Z,6.20
2023-01-19T04:39:44.727Z,6.24
2023-01-19T04:42:11.629Z,6.20
2023-01-19T04:44:38.669Z,6.16
2023-01-19T04:47:05.586Z,6.19
2023-01-19T04:49:32.524Z,6.22
2023-01-19T04:51:59.606Z,6.18
2023-01-19T04:54:27.152Z,6.14
2023-01-19T04:56:54.050Z,6.19
2023-01-19T04:59:21.637Z,6.24
2023-01-19T05:01:48.476Z,6.22
2023-01-19T05:04:15.809Z,6.19
2023-01-19T05:06:42.592Z,6.22
2023-01-19T05:09:11.850Z,6.26
2023-01-19T05:11:38.933Z,6.22
2023-01-19T05:14:05.967Z,6.19
2023-01-19T05:16:33.809Z,6.22
2023-01-19T05:19:00.694Z,6.28
2023-01-19T05:21:28.339Z,6.26
2023-01-19T05:23:55.161Z,6.26
2023-01-19T05:26:22.097Z,6.27
2023-01-19T05:28:50.439Z,6.39
2023-01-19T05:31:18.763Z,6.47
2023-01-19T05:33:46.448Z,6.48
2023-01-19T05:36:13.472Z,6.49
2023-01-19T05:38:40.425Z,6.53
2023-01-19T05:41:07.271Z,6.66
2023-01-19T05:43:34.206Z,6.75
2023-01-19T05:46:01.115Z,6.73
2023-01-19T05:48:28.116Z,6.63
2023-01-19T05:50:58.186Z,6.51
2023-01-19T05:53:25.459Z,6.51
2023-01-19T05:55:52.502Z,6.48
2023-01-19T05:58:19.377Z,6.40
2023-01-19T06:00:46.116Z,6.34
2023-01-19T06:03:13.445Z,6.33
2023-01-19T06:05:40.592Z,6.43
2023-01-19T06:08:07.414Z,6.48
2023-01-19T06:10:34.702Z,6.46
2023-01-19T06:13:01.891Z,6.47
2023-01-19T06:15:29.898Z,6.52
2023-01-19T06:17:56.735Z,6.64
2023-01-19T06:20:23.598Z,6.72
2023-01-19T06:22:50.435Z,6.72
2023-01-19T06:25:17.389Z,6.71
2023-01-19T06:27:45.260Z,6.70
2023-01-19T06:30:13.771Z,6.76
2023-01-19T06:32:40.596Z,6.80
2023-01-19T06:35:08.154Z,6.75
2023-01-19T06:37:35.272Z,6.67
2023-01-19T06:40:02.723Z,6.61
2023-01-19T06:42:29.835Z,6.63
2023-01-19T06:44:56.733Z,6.62
2023-01-19T06:47:23.678Z,6.52
2023-01-19T06:49:50.602Z,6.41
2023-01-19T06:52:18.592Z,6.28
2023-01-19T06:54:46.252Z,6.25
2023-01-19T06:57:14.558Z,6.23
2023-01-19T06:59:41.449Z,6.14
2023-01-19T07:02:26.141Z,6.07
2023-01-19T07:04:56.338Z,6.07
2023-01-19T07:07:23.388Z,6.19
2023-01-19T07:09:53.794Z,6.25
2023-01-19T07:12:22.151Z,6.23
2023-01-19T07:14:49.755Z,6.19
2023-01-19T07:17:19.544Z,6.17
2023-01-19T07:19:46.983Z,6.24
2023-01-19T07:22:13.916Z,6.24
2023-01-19T07:24:41.523Z,6.09
2023-01-19T07:27:08.688Z,5.96
2023-01-19T07:29:35.471Z,5.96
2023-01-19T07:32:02.301Z,5.96
2023-01-19T07:34:29.549Z,5.87
2023-01-19T07:36:56.579Z,5.78
2023-01-19T07:39:23.472Z,5.82
2023-01-19T07:41:50.689Z,5.87
2023-01-19T07:44:18.154Z,5.82
2023-01-19T07:46:44.987Z,5.73
2023-01-19T07:49:12.742Z,5.74
2023-01-19T07:51:39.630Z,5.78
2023-01-19T07:54:08.787Z,5.74
2023-01-19T07:56:35.962Z,5.68
2023-01-19T07:59:02.746Z,5.74
2023-01-19T08:01:29.962Z,5.80
2023-01-19T08:04:45.656Z,5.76
2023-01-19T08:07:12.535Z,5.68
2023-01-19T08:09:39.467Z,5.69
2023-01-19T08:12:06.343Z,5.82
2023-01-19T08:14:34.433Z,5.87
2023-01-19T08:17:01.897Z,5.81
2023-01-19T08:19:28.788Z,5.79
2023-01-19T08:21:56.546Z,5.84
2023-01-19T08:24:25.566Z,5.90
2023-01-19T08:26:55.992Z,5.88
2023-01-19T08:29:22.766Z,5.84
2023-01-19T08:31:49.777Z,5.89
2023-01-19T08:34:16.738Z,5.91
2023-01-19T08:36:43.556Z,5.80
2023-01-19T08:39:12.362Z,5.67
2023-01-19T08:41:39.306Z,5.60
2023-01-19T08:44:06.242Z,5.57
2023-01-19T08:46:33.135Z,5.50
2023-01-19T08:49:00.031Z,5.45
2023-01-19T08:51:26.995Z,5.39
2023-01-19T08:53:53.839Z,5.41
2023-01-19T08:56:20.910Z,5.40
2023-01-19T08:58:59.447Z,5.31
2023-01-19T09:01:34.519Z,5.21
2023-01-19T09:04:01.473Z,5.19
2023-01-19T09:06:28.491Z,5.24
2023-01-19T09:08:55.264Z,5.19
2023-01-19T09:11:22.116Z,5.13
2023-01-19T09:13:49.178Z,5.17
2023-01-19T09:16:16.264Z,5.25
2023-01-19T09:18:43.138Z,5.27
2023-01-19T09:21:09.985Z,5.28
2023-01-19T09:23:36.821Z,5.36
2023-01-19T09:26:04.494Z,5.40
2023-01-19T09:28:31.335Z,5.37
2023-01-19T09:30:58.583Z,5.32
2023-01-19T09:33:25.527Z,5.28
2023-01-19T09:35:52.415Z,5.36
2023-01-19T09:38:20.131Z,5.41
2023-01-19T09:40:52.604Z,5.36
2023-01-19T09:43:31.539Z,5.31
2023-01-19T09:45:59.114Z,5.41
2023-01-19T09:48:30.854Z,5.49
2023-01-19T09:51:02.163Z,5.47
2023-01-19T09:53:45.617Z,5.47
2023-01-19T09:56:14.572Z,5.53
2023-01-19T09:58:41.835Z,5.53
2023-01-19T10:01:22.899Z,5.48
2023-01-19T10:03:50.610Z,5.45
2023-01-19T10:06:17.458Z,5.51
2023-01-19T10:08:52.761Z,5.59
2023-01-19T10:11:52.561Z,5.58
2023-01-19T10:14:34.441Z,5.59
2023-01-19T10:17:36.076Z,5.70
2023-01-19T10:20:03.936Z,5.74
2023-01-19T10:22:30.781Z,5.71
2023-01-19T10:25:02.203Z,5.80
2023-01-19T10:27:30.767Z,5.93
2023-01-19T10:29:58.241Z,5.99
2023-01-19T10:32:46.825Z,6.04
2023-01-19T10:35:23.430Z,6.14
2023-01-19T10:37:56.500Z,6.25
2023-01-19T10:40:27.906Z,6.22
2023-01-19T10:42:54.802Z,6.17
2023-01-19T10:45:24.249Z,6.19
2023-01-19T10:47:53.279Z,6.25
2023-01-19T10:50:37.841Z,6.20
2023-01-19T10:53:06.270Z,6.12
2023-01-19T10:55:38.281Z,6.14
2023-01-19T10:58:06.566Z,6.16
2023-01-19T11:00:39.169Z,6.14
2023-01-19T11:03:40.412Z,6.11
2023-01-19T11:06:15.866Z,6.20
2023-01-19T11:08:44.536Z,6.27
2023-01-19T11:11:12.610Z,6.26
2023-01-19T11:13:40.174Z,6.25
2023-01-19T11:16:23.133Z,6.30
2023-01-19T11:18:51.952Z,6.33
2023-01-19T11:21:18.759Z,6.30
2023-01-19T11:23:47.394Z,6.28
2023-01-19T11:26:24.997Z,6.35
2023-01-19T11:28:54.727Z,6.42
2023-01-19T11:31:27.830Z,6.37
2023-01-19T11:33:56.983Z,6.32
2023-01-19T11:36:36.985Z,6.38
2023-01-19T11:39:24.434Z,6.38
2023-01-19T11:41:53.635Z,6.37
2023-01-19T11:44:33.688Z,6.49
2023-01-19T11:47:02.553Z,6.57
2023-01-19T11:49:40.587Z,6.54
2023-01-19T11:52:21.359Z,6.50
2023-01-19T11:54:53.310Z,6.58
2023-01-19T11:57:20.905Z,6.63
2023-01-19T11:59:47.797Z,6.63
2023-01-19T12:02:31.269Z,6.65
2023-01-19T12:05:00.402Z,6.74
2023-01-19T12:07:30.430Z,6.77
2023-01-19T12:10:06.159Z,6.73
2023-01-19T12:12:35.306Z,6.77
2023-01-19T12:15:08.342Z,6.83
2023-01-19T12:17:37.032Z,6.84
2023-01-19T12:20:07.343Z,6.81
2023-01-19T12:22:39.092Z,6.88
2023-01-19T12:25:22.898Z,6.92
2023-01-19T12:27:49.749Z,6.88
2023-01-19T12:30:21.465Z,6.88
2023-01-19T12:32:48.398Z,6.99
2023-01-19T12:35:53.105Z,7.05
2023-01-19T12:38:40.803Z,7.03
2023-01-19T12:41:26.571Z,7.10
2023-01-19T12:44:12.096Z,7.11
2023-01-19T12:46:43.031Z,7.09
2023-01-19T12:49:38.136Z,7.17
2023-01-19T12:52:20.555Z,7.24
2023-01-19T12:54:55.049Z,7.21
2023-01-19T12:57:48.109Z,7.23
2023-01-19T13:00:24.135Z,7.33
2023-01-19T13:03:17.392Z,7.37
2023-01-19T13:05:44.183Z,7.35
2023-01-19T13:08:13.915Z,7.45
2023-01-19T13:10:59.207Z,7.54
2023-01-19T13:13:38.731Z,7.53
2023-01-19T13:16:21.277Z,7.54
2023-01-19T13:18:53.383Z,7.65
2023-01-19T13:21:39.701Z,7.67
2023-01-19T13:24:15.038Z,7.70
2023-01-19T13:27:00.342Z,7.78
2023-01-19T13:29:38.085Z,7.83
2023-01-19T13:32:07.070Z,7.82
2023-01-19T13:34:47.037Z,7.84
2023-01-19T13:37:26.125Z,7.92
2023-01-19T13:39:53.912Z,7.95
2023-01-19T13:42:32.974Z,7.94
2023-01-19T13:45:37.017Z,8.02
2023-01-19T13:48:08.852Z,8.03
2023-01-19T13:50:40.083Z,8.07
2023-01-19T13:53:20.729Z,8.13
2023-01-19T13:55:50.422Z,8.10
2023-01-19T13:58:23.576Z,8.15
2023-01-19T14:01:58.147Z,8.19
2023-01-19T14:04:25.983Z,8.17
2023-01-19T14:06:55.780Z,8.23
2023-01-19T14:09:23.111Z,8.26
2023-01-19T14:12:14.083Z,8.21
2023-01-19T14:14:42.385Z,8.26
2023-01-19T14:17:27.050Z,8.31
2023-01-19T14:19:57.671Z,8.26
2023-01-19T14:22:57.188Z,8.27
2023-01-19T14:25:28.231Z,8.35
2023-01-19T14:28:29.906Z,8.31
2023-01-19T14:31:01.265Z,8.31
2023-01-19T14:33:46.114Z,8.36
2023-01-19T14:36:28.361Z,8.33
2023-01-19T14:38:57.221Z,8.38
2023-01-19T14:41:49.234Z,8.40
2023-01-19T14:44:22.824Z,8.37
2023-01-19T14:46:49.615Z,8.43
2023-01-19T14:49:30.767Z,8.46
2023-01-19T14:51:57.695Z,8.41
2023-01-19T14:54:38.901Z,8.42
2023-01-19T14:57:10.001Z,8.47
2023-01-19T14:59:36.797Z,8.44
2023-01-19T15:02:03.887Z,8.44
2023-01-19T15:04:30.753Z,8.50
2023-01-19T15:06:57.551Z,8.49
2023-01-19T15:09:24.408Z,8.46
2023-01-19T15:11:51.474Z,8.52
2023-01-19T15:14:19.064Z,8.56
2023-01-19T15:16:45.918Z,8.54
2023-01-19T15:19:13.658Z,8.51
2023-01-19T15:21:45.260Z,8.58
2023-01-19T15:24:13.011Z,8.62
2023-01-19T15:26:41.395Z,8.60
2023-01-19T15:29:16.100Z,8.62
2023-01-19T15:31:49.658Z,8.70
2023-01-19T15:34:20.250Z,8.73
2023-01-19T15:36:47.061Z,8.71
2023-01-19T15:39:13.809Z,8.77
2023-01-19T15:41:40.715Z,8.82
2023-01-19T15:44:10.285Z,8.81
2023-01-19T15:46:37.430Z,8.79
2023-01-19T15:49:05.875Z,8.85
2023-01-19T15:51:33.216Z,8.90
2023-01-19T15:54:00.018Z,8.88
2023-01-19T15:56:29.785Z,8.89
2023-01-19T15:58:58.151Z,8.96
2023-01-19T16:01:34.018Z,8.95
2023-01-19T16:04:05.446Z,8.93
2023-01-19T16:06:33.479Z,9.02
2023-01-19T16:09:01.636Z,9.08
2023-01-19T16:11:29.927Z,9.04
2023-01-19T16:13:56.719Z,9.00
2023-01-19T16:16:24.522Z,9.04
2023-01-19T16:18:51.515Z,9.08
2023-01-19T16:21:18.387Z,9.06
2023-01-19T16:23:45.141Z,9.04
2023-01-19T16:26:26.776Z,9.05
2023-01-19T16:28:56.786Z,9.13
2023-01-19T16:31:25.158Z,9.14
2023-01-19T16:33:51.927Z,9.11
2023-01-19T16:36:25.770Z,9.15
2023-01-19T16:38:52.803Z,9.19
2023-01-19T16:41:19.675Z,9.17
2023-01-19T16:43:51.936Z,9.15
2023-01-19T16:46:26.816Z,9.20
2023-01-19T16:48:53.943Z,9.28
2023-01-19T16:51:20.973Z,9.28
2023-01-19T16:53:49.797Z,9.24
2023-01-19T16:56:16.801Z,9.30
2023-01-19T16:58:43.877Z,9.35
2023-01-19T17:01:18.249Z,9.35
2023-01-19T17:03:47.231Z,9.32
2023-01-19T17:06:15.684Z,9.40
2023-01-19T17:08:42.648Z,9.45
2023-01-19T17:11:11.437Z,9.42
2023-01-19T17:13:38.701Z,9.40
2023-01-19T17:16:05.999Z,9.47
2023-01-19T17:18:34.189Z,9.52
2023-01-19T17:21:05.832Z,9.50
2023-01-19T17:23:32.741Z,9.45
2023-01-19T17:25:59.637Z,9.50
2023-01-19T17:28:26.459Z,9.52
2023-01-19T17:30:53.649Z,9.48
2023-01-19T17:33:24.897Z,9.41
2023-01-19T17:35:51.958Z,9.44
2023-01-19T17:38:18.792Z,9.43
2023-01-19T17:40:45.760Z,9.36
2023-01-19T17:43:12.555Z,9.38
2023-01-19T17:45:39.421Z,9.38
2023-01-19T17:48:07.181Z,9.31
2023-01-19T17:50:34.796Z,9.29
2023-01-19T17:53:01.904Z,9.34
2023-01-19T17:55:29.044Z,9.35
2023-01-19T17:57:55.884Z,9.31
2023-01-19T18:00:23.002Z,9.32
2023-01-19T18:02:51.597Z,9.39
2023-01-19T18:05:18.899Z,9.39
2023-01-19T18:07:46.514Z,9.38
2023-01-19T18:10:13.832Z,9.46
2023-01-19T18:12:41.063Z,9.54
2023-01-19T18:15:09.565Z,9.50
2023-01-19T18:17:36.575Z,9.49
2023-01-19T18:20:04.756Z,9.57
2023-01-19T18:22:32.464Z,9.60
2023-01-19T18:24:59.654Z,9.58
2023-01-19T18:27:26.659Z,9.59
2023-01-19T18:29:54.265Z,9.70
2023-01-19T18:32:21.745Z,9.70
2023-01-19T18:34:48.866Z,9.66
2023-01-19T18:37:15.889Z,9.72
2023-01-19T18:39:42.789Z,9.75
2023-01-19T18:42:09.828Z,9.69
2023-01-19T18:44:36.687Z,9.63
2023-01-19T18:47:03.609Z,9.65
2023-01-19T18:49:30.419Z,9.68
2023-01-19T18:51:58.006Z,9.60
2023-01-19T18:54:25.351Z,9.58
2023-01-19T18:56:52.702Z,9.58
2023-01-19T18:59:19.666Z,9.49
2023-01-19T19:01:46.696Z,9.44
2023-01-19T19:04:13.722Z,9.47
2023-01-19T19:06:40.620Z,9.44
2023-01-19T19:09:07.562Z,9.35
2023-01-19T19:11:34.498Z,9.31
2023-01-19T19:14:01.872Z,9.34
2023-01-19T19:16:29.758Z,9.33
2023-01-19T19:18:56.978Z,9.26
2023-01-19T19:21:27.722Z,9.22
2023-01-19T19:23:55.984Z,9.26
2023-01-19T19:26:23.341Z,9.27
2023-01-19T19:28:50.273Z,9.21
2023-01-19T19:31:20.758Z,9.15
2023-01-19T19:33:48.829Z,9.18
2023-01-19T19:36:16.168Z,9.20
2023-01-19T19:38:44.555Z,9.15
2023-01-19T19:41:12.943Z,9.12
2023-01-19T19:43:40.536Z,9.15
2023-01-19T19:46:09.020Z,9.13
2023-01-19T19:48:38.897Z,9.06
2023-01-19T19:51:18.042Z,9.07
2023-01-19T19:53:46.465Z,9.08
2023-01-19T19:56:13.634Z,9.00
2023-01-19T19:58:41.860Z,8.95
2023-01-19T20:01:09.705Z,8.98
2023-01-19T20:03:36.892Z,8.99
2023-01-19T20:06:05.461Z,8.92
2023-01-19T20:08:32.606Z,8.89
2023-01-19T20:11:09.908Z,8.92
2023-01-19T20:13:37.562Z,8.89
2023-01-19T20:16:06.291Z,8.82
2023-01-19T20:18:34.120Z,8.86
2023-01-19T20:21:01.002Z,8.86
2023-01-19T20:23:28.099Z,8.79
2023-01-19T20:25:54.885Z,8.77
2023-01-19T20:28:21.686Z,8.79
2023-01-19T20:30:48.714Z,8.77
2023-01-19T20:33:15.986Z,8.69
2023-01-19T20:35:43.036Z,8.66
2023-01-19T20:38:10.048Z,8.69
2023-01-19T20:40:37.031Z,8.67
2023-01-19T20:43:03.869Z,8.60
2023-01-19T20:45:30.952Z,8.60
2023-01-19T20:47:57.965Z,8.62
2023-01-19T20:50:24.807Z,8.56
2023-01-19T20:52:51.854Z,8.51
2023-01-19T20:55:19.208Z,8.54
2023-01-19T20:57:46.257Z,8.54
2023-01-19T21:00:13.921Z,8.48
2023-01-19T21:02:40.784Z,8.50
2023-01-19T21:05:08.602Z,8.52
2023-01-19T21:07:35.774Z,8.46
2023-01-19T21:10:02.721Z,8.46
2023-01-19T21:12:29.560Z,8.51
2023-01-19T21:14:56.504Z,8.45
2023-01-19T21:17:23.352Z,8.40
2023-01-19T21:19:50.392Z,8.42
2023-01-19T21:22:17.359Z,8.43
2023-01-19T21:24:44.641Z,8.38
2023-01-19T21:27:11.674Z,8.35
2023-01-19T21:29:38.582Z,8.39
2023-01-19T21:32:06.004Z,8.37
2023-01-19T21:34:33.014Z,8.32
2023-01-19T21:36:59.935Z,8.37
2023-01-19T21:39:26.757Z,8.38
2023-01-19T21:41:53.845Z,8.32
2023-01-19T21:44:20.662Z,8.35
2023-01-19T21:46:47.409Z,8.39
2023-01-19T21:49:18.508Z,8.36
2023-01-19T21:51:47.770Z,8.38
2023-01-19T21:54:15.012Z,8.40
2023-01-19T21:56:43.491Z,8.35
2023-01-19T21:59:12.409Z,8.31
2023-01-19T22:01:39.184Z,8.36
2023-01-19T22:04:06.265Z,8.41
2023-01-19T22:06:33.313Z,8.39
2023-01-19T22:09:00.877Z,8.34
2023-01-19T22:11:28.028Z,8.39
2023-01-19T22:13:55.144Z,8.43
2023-01-19T22:16:22.733Z,8.44
2023-01-19T22:18:51.625Z,8.46
2023-01-19T22:21:20.185Z,8.42
2023-01-19T22:23:51.239Z,8.47
2023-01-19T22:26:18.396Z,8.50
2023-01-19T22:28:45.461Z,8.49
2023-01-19T22:31:16.938Z,8.49
2023-01-19T22:33:43.966Z,8.45
2023-01-19T22:36:14.216Z,8.49
2023-01-19T22:38:41.135Z,8.50
2023-01-19T22:41:37.873Z,8.47
2023-01-19T22:44:07.456Z,8.49
2023-01-19T22:46:35.304Z,8.50
2023-01-19T22:49:02.175Z,8.46
2023-01-19T22:51:29.617Z,8.45
2023-01-19T22:53:56.522Z,8.50
2023-01-19T22:56:29.784Z,8.47
2023-01-19T22:58:56.823Z,8.45
2023-01-19T23:01:25.644Z,8.51
2023-01-19T23:03:53.724Z,8.51
2023-01-19T23:06:25.238Z,8.46
2023-01-19T23:08:52.169Z,8.51
2023-01-19T23:11:20.853Z,8.52
2023-01-19T23:13:48.524Z,8.47
2023-01-19T23:16:15.353Z,8.47
2023-01-19T23:18:42.318Z,8.52
2023-01-19T23:21:17.280Z,8.51
2023-01-19T23:23:44.379Z,8.49
2023-01-19T23:26:13.293Z,8.53
2023-01-19T23:28:40.461Z,8.54
2023-01-19T23:31:23.785Z,8.49
2023-01-19T23:33:53.291Z,8.53
2023-01-19T23:36:20.448Z,8.53
2023-01-19T23:38:51.871Z,8.48
2023-01-19T23:41:19.198Z,8.53
2023-01-19T23:43:45.971Z,8.57
2023-01-19T23:46:13.245Z,8.55
2023-01-19T23:48:40.168Z,8.52
2023-01-19T23:51:08.226Z,8.58
2023-01-19T23:53:35.643Z,8.61
2023-01-19T23:56:12.429Z,8.56
2023-01-19T23:58:39.403Z,8.60
